createdAt,value
2023-02-23T00:00:28.461Z,16.85
2023-02-23T00:03:15.980Z,17.17
2023-02-23T00:06:04.634Z,16.58
2023-02-23T00:08:53.201Z,16.92
2023-02-23T00:11:40.789Z,16.90
2023-02-23T00:14:31.260Z,16.65
2023-02-23T00:17:20.153Z,19.27
2023-02-23T00:20:12.445Z,16.35
2023-02-23T00:22:59.795Z,17.08
2023-02-23T00:25:47.220Z,17.08
2023-02-23T00:28:35.101Z,16.63
2023-02-23T00:31:26.308Z,17.05
2023-02-23T00:34:16.889Z,17.80
2023-02-23T00:37:04.581Z,16.98
2023-02-23T00:39:53.086Z,18.05
2023-02-23T00:42:40.519Z,17.05
2023-02-23T00:45:28.290Z,17.15
2023-02-23T00:48:16.105Z,16.67
2023-02-23T00:51:07.014Z,19.45
2023-02-23T00:53:56.046Z,18.45
2023-02-23T00:56:44.137Z,16.75
2023-02-23T00:59:31.938Z,17.30
2023-02-23T01:02:19.706Z,16.45
2023-02-23T01:05:08.600Z,17.65
2023-02-23T01:07:57.399Z,17.73
2023-02-23T01:10:52.270Z,16.85
2023-02-23T01:13:41.044Z,16.10
2023-02-23T01:16:31.300Z,18.05
2023-02-23T01:19:19.185Z,18.13
2023-02-23T01:22:09.509Z,18.20
2023-02-23T01:24:58.529Z,18.55
2023-02-23T01:27:46.513Z,18.13
2023-02-23T01:30:35.209Z,17.48
2023-02-23T01:33:22.964Z,16.88
2023-02-23T01:36:10.765Z,17.13
2023-02-23T01:39:00.402Z,16.70
2023-02-23T01:41:51.707Z,17.45
2023-02-23T01:45:21.926Z,16.55
2023-02-23T01:48:12.575Z,17.90
2023-02-23T01:51:03.920Z,16.50
2023-02-23T01:53:57.221Z,17.52
2023-02-23T01:56:49.324Z,17.38
2023-02-23T01:59:42.487Z,17.02
2023-02-23T02:02:33.862Z,16.83
2023-02-23T02:05:23.206Z,18.50
2023-02-23T02:08:11.815Z,18.48
2023-02-23T02:10:59.639Z,17.23
2023-02-23T02:13:47.325Z,16.98
2023-02-23T02:17:02.926Z,17.63
2023-02-23T02:20:32.243Z,19.98
2023-02-23T02:23:50.045Z,18.63
2023-02-23T02:26:49.090Z,18.38
2023-02-23T02:30:04.510Z,18.52
2023-02-23T02:33:33.195Z,17.48
2023-02-23T02:36:59.021Z,17.08
2023-02-23T02:40:15.087Z,17.33
2023-02-23T02:43:11.314Z,16.83
2023-02-23T02:48:57.862Z,18.48
2023-02-23T02:51:50.109Z,18.80
2023-02-23T02:54:41.180Z,18.48
2023-02-23T02:57:31.721Z,16.85
2023-02-23T03:00:40.368Z,19.13
2023-02-23T03:03:50.790Z,18.73
2023-02-23T03:07:04.532Z,19.23
2023-02-23T03:10:15.916Z,18.13
2023-02-23T03:13:28.465Z,20.17
2023-02-23T03:16:41.626Z,17.60
2023-02-23T03:19:50.614Z,20.10
2023-02-23T03:23:00.915Z,19.23
2023-02-23T03:26:13.182Z,19.58
2023-02-23T03:29:26.440Z,19.48
2023-02-23T03:32:40.749Z,19.55
2023-02-23T03:35:52.162Z,21.38
2023-02-23T03:39:00.977Z,19.02
2023-02-23T03:42:10.240Z,20.92
2023-02-23T03:45:20.661Z,19.65
2023-02-23T03:48:29.761Z,20.27
2023-02-23T03:51:38.378Z,20.55
2023-02-23T03:54:49.709Z,21.27
2023-02-23T03:57:56.817Z,20.15
2023-02-23T04:01:06.325Z,21.88
2023-02-23T04:04:13.778Z,21.48
2023-02-23T04:07:21.328Z,21.48
2023-02-23T04:10:28.090Z,22.67
2023-02-23T04:13:19.896Z,20.90
2023-02-23T04:16:09.546Z,20.02
2023-02-23T04:18:57.570Z,21.42
2023-02-23T04:21:44.980Z,19.83
2023-02-23T04:24:32.326Z,20.58
2023-02-23T04:27:19.986Z,19.65
2023-02-23T04:30:11.559Z,20.58
2023-02-23T04:33:00.756Z,19.75
2023-02-23T04:35:48.366Z,19.60
2023-02-23T04:38:35.613Z,19.65
2023-02-23T04:41:23.105Z,19.65
2023-02-23T04:44:10.433Z,19.35
2023-02-23T04:46:58.578Z,21.17
2023-02-23T04:49:47.200Z,20.63
2023-02-23T04:52:37.652Z,19.70
2023-02-23T04:55:27.245Z,19.23
2023-02-23T04:58:14.795Z,19.20
2023-02-23T05:01:07.634Z,19.38
2023-02-23T05:03:55.905Z,19.50
2023-02-23T05:06:45.016Z,19.42
2023-02-23T05:09:33.033Z,19.63
2023-02-23T05:12:20.826Z,21.00
2023-02-23T05:15:11.163Z,19.58
2023-02-23T05:17:58.611Z,19.70
2023-02-23T05:20:46.209Z,19.00
2023-02-23T05:23:35.998Z,18.08
2023-02-23T05:26:23.994Z,19.50
2023-02-23T05:29:11.691Z,20.48
2023-02-23T05:31:59.130Z,21.00
2023-02-23T05:34:46.916Z,21.13
2023-02-23T05:37:34.824Z,20.38
2023-02-23T05:40:23.865Z,20.60
2023-02-23T05:43:11.627Z,19.88
2023-02-23T05:45:59.421Z,18.88
2023-02-23T05:48:47.393Z,17.88
2023-02-23T05:51:36.185Z,19.73
2023-02-23T05:54:23.761Z,19.73
2023-02-23T05:57:12.555Z,19.65
2023-02-23T06:00:00.380Z,18.98
2023-02-23T06:02:47.936Z,19.73
2023-02-23T06:05:35.327Z,20.20
2023-02-23T06:08:22.935Z,20.15
2023-02-23T06:11:10.904Z,19.73
2023-02-23T06:14:00.854Z,19.13
2023-02-23T06:16:48.937Z,22.08
2023-02-23T06:19:36.427Z,20.05
2023-02-23T06:22:23.685Z,19.80
2023-02-23T06:25:13.613Z,17.40
2023-02-23T06:28:01.449Z,20.05
2023-02-23T06:30:53.007Z,19.80
2023-02-23T06:33:40.353Z,22.73
2023-02-23T06:36:28.885Z,22.85
2023-02-23T06:39:16.431Z,20.63
2023-02-23T06:42:04.097Z,20.27
2023-02-23T06:44:51.803Z,20.48
2023-02-23T06:47:44.651Z,19.15
2023-02-23T06:50:32.661Z,22.02
2023-02-23T06:53:20.305Z,22.58
2023-02-23T06:56:08.368Z,19.27
2023-02-23T06:58:55.774Z,22.73
2023-02-23T07:01:44.831Z,21.70
2023-02-23T07:04:34.253Z,20.35
2023-02-23T07:07:22.294Z,21.58
2023-02-23T07:10:11.287Z,21.60
2023-02-23T07:12:59.083Z,22.48
2023-02-23T07:15:47.690Z,22.42
2023-02-23T07:18:35.644Z,21.50
2023-02-23T07:21:24.664Z,22.75
2023-02-23T07:24:12.075Z,22.60
2023-02-23T07:26:59.765Z,24.13
2023-02-23T07:29:47.084Z,21.83
2023-02-23T07:32:35.493Z,22.55
2023-02-23T07:35:22.879Z,22.00
2023-02-23T07:38:13.536Z,21.42
2023-02-23T07:41:01.103Z,20.70
2023-02-23T07:43:48.839Z,22.50
2023-02-23T07:46:36.177Z,22.63
2023-02-23T07:49:23.481Z,22.20
2023-02-23T07:52:11.682Z,24.85
2023-02-23T07:55:00.414Z,21.08
2023-02-23T07:57:47.960Z,23.38
2023-02-23T08:00:36.629Z,23.13
2023-02-23T08:03:24.728Z,20.80
2023-02-23T08:06:12.192Z,21.48
2023-02-23T08:09:00.681Z,22.73
2023-02-23T08:11:49.705Z,22.05
2023-02-23T08:14:37.557Z,21.88
2023-02-23T08:17:25.091Z,21.75
2023-02-23T08:20:13.294Z,22.70
2023-02-23T08:23:00.778Z,22.33
2023-02-23T08:25:48.761Z,21.70
2023-02-23T08:28:37.911Z,23.90
2023-02-23T08:31:27.708Z,22.60
2023-02-23T08:34:15.664Z,21.33
2023-02-23T08:37:03.086Z,22.13
2023-02-23T08:39:50.599Z,21.65
2023-02-23T08:42:38.021Z,22.63
2023-02-23T08:45:29.397Z,21.38
2023-02-23T08:48:17.074Z,23.40
2023-02-23T08:51:04.928Z,21.00
2023-02-23T08:53:52.603Z,21.35
2023-02-23T08:56:40.118Z,20.25
2023-02-23T08:59:28.258Z,21.80
2023-02-23T09:02:17.294Z,23.08
2023-02-23T09:05:04.775Z,21.83
2023-02-23T09:07:52.062Z,20.38
2023-02-23T09:10:39.420Z,20.17
2023-02-23T09:13:26.791Z,21.25
2023-02-23T09:16:14.815Z,22.42
2023-02-23T09:19:03.686Z,20.58
2023-02-23T09:21:51.475Z,21.35
2023-02-23T09:24:39.484Z,20.52
2023-02-23T09:27:27.047Z,21.52
2023-02-23T09:30:17.887Z,20.85
2023-02-23T09:33:07.464Z,21.83
2023-02-23T09:35:56.581Z,20.60
2023-02-23T09:38:44.652Z,21.17
2023-02-23T09:42:11.744Z,20.67
2023-02-23T09:45:05.186Z,21.88
2023-02-23T09:48:06.597Z,20.48
2023-02-23T09:50:57.266Z,20.17
2023-02-23T09:53:51.073Z,20.17
2023-02-23T09:56:41.005Z,20.35
2023-02-23T09:59:29.400Z,19.88
2023-02-23T10:02:32.331Z,19.75
2023-02-23T10:05:22.333Z,20.10
2023-02-23T10:08:24.019Z,20.48
2023-02-23T10:11:21.458Z,19.65
2023-02-23T10:14:21.241Z,20.63
2023-02-23T10:17:21.475Z,20.77
2023-02-23T10:20:20.335Z,20.30
2023-02-23T10:23:13.592Z,18.75
2023-02-23T10:26:03.457Z,17.95
2023-02-23T10:28:53.912Z,20.70
2023-02-23T10:31:45.426Z,18.83
2023-02-23T10:34:33.450Z,18.63
2023-02-23T10:37:21.570Z,19.50
2023-02-23T10:40:16.679Z,19.58
2023-02-23T10:43:04.785Z,19.63
2023-02-23T10:45:54.040Z,18.92
2023-02-23T10:48:44.244Z,18.23
2023-02-23T10:51:37.857Z,17.70
2023-02-23T10:54:52.854Z,18.77
2023-02-23T10:57:41.875Z,16.92
2023-02-23T11:00:33.163Z,17.30
2023-02-23T11:03:26.668Z,18.15
2023-02-23T11:06:30.321Z,16.75
2023-02-23T11:09:41.882Z,17.60
2023-02-23T11:12:41.947Z,16.42
2023-02-23T11:15:49.449Z,17.85
2023-02-23T11:18:39.391Z,16.30
2023-02-23T11:21:33.652Z,17.13
2023-02-23T11:24:25.156Z,18.08
2023-02-23T11:27:23.479Z,16.30
2023-02-23T11:30:14.274Z,17.83
2023-02-23T11:33:10.690Z,18.30
2023-02-23T11:36:00.416Z,17.43
2023-02-23T11:38:48.113Z,16.55
2023-02-23T11:41:37.509Z,17.70
2023-02-23T11:44:25.911Z,17.75
2023-02-23T11:47:19.074Z,17.42
2023-02-23T11:50:09.383Z,18.35
2023-02-23T11:53:05.092Z,18.48
2023-02-23T11:55:55.855Z,17.08
2023-02-23T11:58:47.864Z,17.30
2023-02-23T12:01:44.618Z,17.85
2023-02-23T12:07:39.021Z,16.55
2023-02-23T12:10:30.755Z,16.90
2023-02-23T12:13:28.090Z,17.77
2023-02-23T12:19:20.460Z,17.27
2023-02-23T12:22:13.373Z,17.55
2023-02-23T12:25:05.135Z,18.42
2023-02-23T12:28:05.050Z,18.00
2023-02-23T12:31:03.040Z,17.88
2023-02-23T12:33:57.335Z,17.92
2023-02-23T12:36:48.691Z,15.60
2023-02-23T12:39:41.064Z,17.30
2023-02-23T12:42:41.147Z,16.60
2023-02-23T12:45:36.876Z,17.30
2023-02-23T12:48:34.384Z,19.15
2023-02-23T12:51:28.202Z,17.08
2023-02-23T12:54:17.813Z,18.90
2023-02-23T12:57:15.250Z,18.38
2023-02-23T13:00:31.086Z,17.88
2023-02-23T13:03:52.233Z,16.92
2023-02-23T13:06:50.909Z,17.67
2023-02-23T13:09:50.491Z,18.58
2023-02-23T13:12:49.554Z,18.00
2023-02-23T13:15:54.970Z,17.65
2023-02-23T13:18:47.435Z,18.63
2023-02-23T13:21:38.150Z,18.55
2023-02-23T13:24:27.642Z,19.13
2023-02-23T13:27:19.833Z,18.55
2023-02-23T13:30:12.192Z,17.60
2023-02-23T13:33:03.469Z,18.45
2023-02-23T13:35:51.113Z,17.65
2023-02-23T13:38:45.227Z,18.27
2023-02-23T13:41:39.118Z,19.33
2023-02-23T13:44:33.883Z,19.27
2023-02-23T13:47:35.038Z,17.42
2023-02-23T13:50:31.017Z,18.77
2023-02-23T13:53:35.030Z,18.45
2023-02-23T13:56:25.886Z,18.60
2023-02-23T13:59:19.546Z,18.83
2023-02-23T14:02:28.796Z,18.52
2023-02-23T14:05:20.698Z,16.88
2023-02-23T14:08:22.252Z,18.35
2023-02-23T14:11:10.019Z,18.23
2023-02-23T14:14:03.323Z,18.92
2023-02-23T14:17:26.435Z,16.88
2023-02-23T14:20:29.522Z,18.15
2023-02-23T14:23:54.055Z,19.00
2023-02-23T14:26:45.034Z,19.00
2023-02-23T14:29:40.027Z,20.02
2023-02-23T14:32:31.092Z,18.45
2023-02-23T14:35:42.670Z,18.55
2023-02-23T14:38:46.941Z,18.05
2023-02-23T14:41:42.961Z,19.17
2023-02-23T14:44:32.498Z,18.40
2023-02-23T14:47:22.752Z,20.02
2023-02-23T14:50:18.047Z,19.73
2023-02-23T14:53:09.613Z,20.90
2023-02-23T14:55:58.108Z,18.95
2023-02-23T14:58:52.080Z,19.27
2023-02-23T15:01:41.101Z,18.92
2023-02-23T15:04:31.502Z,17.48
2023-02-23T15:07:25.287Z,18.63
2023-02-23T15:10:19.880Z,17.92
2023-02-23T15:13:11.543Z,18.00
2023-02-23T15:16:04.842Z,18.45
2023-02-23T15:18:53.403Z,19.08
2023-02-23T15:21:40.952Z,20.42
2023-02-23T15:24:32.781Z,19.77
2023-02-23T15:27:27.009Z,18.60
2023-02-23T15:30:23.795Z,18.35
2023-02-23T15:36:09.375Z,18.92
2023-02-23T15:38:59.981Z,18.00
2023-02-23T15:41:49.581Z,20.67
2023-02-23T15:44:44.427Z,20.95
2023-02-23T15:47:36.062Z,20.27
2023-02-23T15:50:36.486Z,19.60
2023-02-23T15:53:30.252Z,19.85
2023-02-23T15:56:24.500Z,20.65
2023-02-23T15:59:17.565Z,20.60
2023-02-23T16:02:14.759Z,22.13
2023-02-23T16:05:10.085Z,20.55
2023-02-23T16:08:07.597Z,19.77
2023-02-23T16:11:03.520Z,19.80
2023-02-23T16:13:53.873Z,20.63
2023-02-23T16:16:42.941Z,20.63
2023-02-23T16:19:31.918Z,20.50
2023-02-23T16:22:26.257Z,20.05
2023-02-23T16:25:18.999Z,20.30
2023-02-23T16:28:10.609Z,22.38
2023-02-23T16:31:01.706Z,20.85
2023-02-23T16:33:55.785Z,23.05
2023-02-23T16:36:43.533Z,22.90
2023-02-23T16:39:34.335Z,22.83
2023-02-23T16:42:27.418Z,23.55
2023-02-23T16:45:18.278Z,23.02
2023-02-23T16:48:11.562Z,24.20
2023-02-23T16:50:59.025Z,24.88
2023-02-23T16:53:47.306Z,27.20
2023-02-23T16:56:35.873Z,29.55
2023-02-23T16:59:25.189Z,31.23
2023-02-23T17:02:14.897Z,30.00
2023-02-23T17:05:02.720Z,30.00
2023-02-23T17:07:50.789Z,31.08
2023-02-23T17:10:41.439Z,40.28
2023-02-23T17:13:33.222Z,37.78
2023-02-23T17:16:22.187Z,36.60
2023-02-23T17:19:10.099Z,37.47
2023-02-23T17:21:57.415Z,35.47
2023-02-23T17:24:45.330Z,32.88
2023-02-23T17:27:32.962Z,33.20
2023-02-23T17:30:21.294Z,36.03
2023-02-23T17:33:10.981Z,39.03
2023-02-23T17:35:58.743Z,39.00
2023-02-23T17:38:46.278Z,35.13
2023-02-23T17:41:34.370Z,34.22
2023-02-23T17:44:22.212Z,31.55
2023-02-23T17:47:10.153Z,29.30
2023-02-23T17:49:58.948Z,27.13
2023-02-23T17:52:46.482Z,25.50
2023-02-23T17:55:33.905Z,28.00
2023-02-23T17:58:22.321Z,26.13
2023-02-23T18:01:09.788Z,29.55
2023-02-23T18:03:58.661Z,30.48
2023-02-23T18:06:47.534Z,30.05
2023-02-23T18:09:35.297Z,30.80
2023-02-23T18:12:22.776Z,29.42
2023-02-23T18:15:10.800Z,29.85
2023-02-23T18:17:59.743Z,35.13
2023-02-23T18:20:51.599Z,29.52
2023-02-23T18:23:40.605Z,31.00
2023-02-23T18:26:28.436Z,28.52
2023-02-23T18:29:16.016Z,28.45
2023-02-23T18:32:05.372Z,29.85
2023-02-23T18:34:52.969Z,36.78
2023-02-23T18:37:40.569Z,39.50
2023-02-23T18:40:29.162Z,36.70
2023-02-23T18:43:16.951Z,35.63
2023-02-23T18:46:06.714Z,32.53
2023-02-23T18:48:54.697Z,38.63
2023-02-23T18:51:43.376Z,36.70
2023-02-23T18:54:31.210Z,38.97
2023-02-23T18:57:20.063Z,37.97
2023-02-23T19:00:13.388Z,38.88
2023-02-23T19:03:01.147Z,36.58
2023-02-23T19:05:52.989Z,39.45
2023-02-23T19:08:42.271Z,35.15
2023-02-23T19:11:32.180Z,39.30
2023-02-23T19:14:32.909Z,34.67
2023-02-23T19:17:25.319Z,32.95
2023-02-23T19:20:14.273Z,34.15
2023-02-23T19:23:02.560Z,36.03
2023-02-23T19:25:50.850Z,34.95
2023-02-23T19:28:38.597Z,34.33
2023-02-23T19:31:28.744Z,33.47
2023-02-23T19:34:16.519Z,31.38
2023-02-23T19:37:04.521Z,34.05
2023-02-23T19:39:53.973Z,34.97
2023-02-23T19:42:45.790Z,38.95
2023-02-23T19:45:33.537Z,47.17
2023-02-23T19:48:25.407Z,43.25
2023-02-23T19:51:13.820Z,40.70
2023-02-23T19:54:01.655Z,39.33
2023-02-23T19:56:49.986Z,40.53
2023-02-23T19:59:38.030Z,42.75
2023-02-23T20:02:25.434Z,41.00
2023-02-23T20:05:16.896Z,38.88
2023-02-23T20:08:04.565Z,37.00
2023-02-23T20:10:52.962Z,33.58
2023-02-23T20:13:40.563Z,33.70
2023-02-23T20:16:29.716Z,37.47
2023-02-23T20:19:17.911Z,34.17
2023-02-23T20:22:08.850Z,30.92
2023-02-23T20:24:56.959Z,30.05
2023-02-23T20:27:45.393Z,30.27
2023-02-23T20:30:33.022Z,29.95
2023-02-23T20:33:20.661Z,28.35
2023-02-23T20:36:08.857Z,28.70
2023-02-23T20:38:58.242Z,27.98
2023-02-23T20:41:47.839Z,28.50
2023-02-23T20:44:35.380Z,27.02
2023-02-23T20:47:23.209Z,29.75
2023-02-23T20:50:12.885Z,28.85
2023-02-23T20:53:02.472Z,30.23
2023-02-23T20:55:52.437Z,29.95
2023-02-23T20:58:40.115Z,31.55
2023-02-23T21:01:28.156Z,30.95
2023-02-23T21:04:16.276Z,32.67
2023-02-23T21:07:07.075Z,29.52
2023-02-23T21:09:55.241Z,32.88
2023-02-23T21:12:44.479Z,32.58
2023-02-23T21:15:33.188Z,30.27
2023-02-23T21:18:20.631Z,30.83
2023-02-23T21:21:09.799Z,28.52
2023-02-23T21:23:57.491Z,33.47
2023-02-23T21:26:45.466Z,31.52
2023-02-23T21:29:34.567Z,30.13
2023-02-23T21:32:24.040Z,30.92
2023-02-23T21:35:11.979Z,32.22
2023-02-23T21:37:59.487Z,30.50
2023-02-23T21:40:47.076Z,34.85
2023-02-23T21:43:36.139Z,34.08
2023-02-23T21:46:25.616Z,31.80
2023-02-23T21:49:13.164Z,31.48
2023-02-23T21:52:00.725Z,34.05
2023-02-23T21:54:50.401Z,30.75
2023-02-23T21:57:38.282Z,34.33
2023-02-23T22:00:28.099Z,34.55
2023-02-23T22:03:16.802Z,32.08
2023-02-23T22:06:04.223Z,33.75
2023-02-23T22:08:52.538Z,30.48
2023-02-23T22:11:43.732Z,32.97
2023-02-23T22:14:31.273Z,34.13
2023-02-23T22:17:19.984Z,31.92
2023-02-23T22:20:10.100Z,33.40
2023-02-23T22:22:57.657Z,34.63
2023-02-23T22:25:47.006Z,32.78
2023-02-23T22:28:35.516Z,30.83
2023-02-23T22:31:23.832Z,33.78
2023-02-23T22:34:11.707Z,32.05
2023-02-23T22:37:00.683Z,34.60
2023-02-23T22:39:47.968Z,32.47
2023-02-23T22:42:35.445Z,35.17
2023-02-23T22:45:22.847Z,32.35
2023-02-23T22:48:11.415Z,35.58
2023-02-23T22:50:59.772Z,30.70
2023-02-23T22:53:48.858Z,31.48
2023-02-23T22:56:37.583Z,32.00
2023-02-23T22:59:25.333Z,29.10
2023-02-23T23:02:13.328Z,29.05
2023-02-23T23:05:01.914Z,29.48
2023-02-23T23:07:49.895Z,29.52
2023-02-23T23:10:39.228Z,29.58
2023-02-23T23:13:26.907Z,27.75
2023-02-23T23:16:30.766Z,28.67
2023-02-23T23:19:24.260Z,27.95
2023-02-23T23:22:14.700Z,30.50
2023-02-23T23:25:02.326Z,31.75
2023-02-23T23:27:53.654Z,28.88
2023-02-23T23:30:41.814Z,29.75
2023-02-23T23:33:30.617Z,27.88
2023-02-23T23:36:19.786Z,30.33
2023-02-23T23:39:07.312Z,34.22
2023-02-23T23:41:55.406Z,35.03
2023-02-23T23:44:45.327Z,37.55
2023-02-23T23:47:32.953Z,38.00
2023-02-23T23:50:26.639Z,38.50
2023-02-23T23:53:14.663Z,37.53
2023-02-23T23:56:09.109Z,37.45
2023-02-23T23:58:56.561Z,34.95
